Time;durP1;ratioP1;P1;durP2;ratioP2;P2;SDS_P1;SDS_P2;PMS_P1;PMS_P2;Temp;Humidity;BMP_temperature;BMP_pressure;BME280_temperature;BME280_humidity;BME280_pressure;Samples;Min_cycle;Max_cycle;Signal;HPM_P1;HPM_P2
2022/10/04 00:01:22;;;;;;;15.23;5.07;;;;;;;10.85;100.00;102101.56;4994479;28;20791;-50
2022/10/04 00:04:02;;;;;;;21.65;5.15;;;;;;;10.89;100.00;102097.91;4998987;28;20193;-47
2022/10/04 00:06:28;;;;;;;21.88;5.38;;;;;;;10.90;100.00;102097.88;4998551;28;20572;-47
2022/10/04 00:09:00;;;;;;;24.88;5.53;;;;;;;10.84;100.00;102102.47;4991659;28;20265;-48
2022/10/04 00:11:35;;;;;;;19.67;5.90;;;;;;;10.84;100.00;102094.41;4989986;28;20209;-48
2022/10/04 00:14:08;;;;;;;14.75;4.82;;;;;;;10.84;100.00;102089.94;4996244;28;20194;-47
2022/10/04 00:16:39;;;;;;;26.40;5.60;;;;;;;10.81;100.00;102095.38;4992795;28;20181;-47
2022/10/04 00:19:13;;;;;;;21.73;5.50;;;;;;;10.77;100.00;102090.97;4996613;28;20683;-49
2022/10/04 00:22:07;;;;;;;18.42;5.22;;;;;;;10.67;100.00;102092.03;4992759;28;20282;-48
2022/10/04 00:24:35;;;;;;;16.80;5.00;;;;;;;10.73;100.00;102083.91;4991953;28;20216;-48
2022/10/04 00:27:23;;;;;;;20.15;5.50;;;;;;;10.74;100.00;102084.81;4997642;28;20213;-49
2022/10/04 00:30:00;;;;;;;17.27;4.65;;;;;;;10.77;100.00;102082.06;4994628;28;20185;-46
2022/10/04 00:32:44;;;;;;;20.48;5.38;;;;;;;10.71;100.00;102083.94;4997634;28;20215;-48
2022/10/04 00:35:25;;;;;;;25.63;5.88;;;;;;;10.79;100.00;102085.59;4996876;28;20189;-49
2022/10/04 00:38:08;;;;;;;18.13;4.97;;;;;;;10.76;100.00;102093.69;4992706;28;20185;-48
2022/10/04 00:40:39;;;;;;;16.90;5.38;;;;;;;10.74;100.00;102087.50;4993958;28;20241;-48
2022/10/04 00:43:12;;;;;;;18.98;5.30;;;;;;;10.71;100.00;102099.13;4990369;28;20271;-49
2022/10/04 00:45:44;;;;;;;17.92;4.82;;;;;;;10.70;100.00;102097.38;4999605;28;20176;-50
2022/10/04 00:48:33;;;;;;;15.55;5.15;;;;;;;10.73;100.00;102081.22;4996641;28;20224;-49
2022/10/04 00:51:01;;;;;;;19.42;5.28;;;;;;;10.69;100.00;102095.59;4993442;28;20220;-49
2022/10/04 00:53:33;;;;;;;20.73;5.28;;;;;;;10.71;100.00;102099.13;4993200;28;20189;-48
2022/10/04 00:56:03;;;;;;;15.93;5.13;;;;;;;10.63;100.00;102088.56;4998813;28;20695;-48
2022/10/04 00:58:37;;;;;;;20.67;6.15;;;;;;;10.61;100.00;102089.50;4995950;28;20182;-49
2022/10/04 01:01:03;;;;;;;18.75;5.15;;;;;;;10.63;100.00;102093.91;4999056;28;20212;-49
2022/10/04 01:03:36;;;;;;;15.40;4.72;;;;;;;10.68;100.00;102081.31;4991689;28;20185;-50
2022/10/04 01:06:04;;;;;;;18.42;6.07;;;;;;;10.64;100.00;102090.31;5013056;28;20212;-50
2022/10/04 01:08:34;;;;;;;22.75;5.53;;;;;;;10.58;100.00;102089.53;4991883;28;20518;-51
2022/10/04 01:11:14;;;;;;;15.55;4.47;;;;;;;10.69;100.00;102085.78;4997353;28;20208;-48
2022/10/04 01:13:48;;;;;;;17.15;5.13;;;;;;;10.64;100.00;102084.97;4997214;28;20185;-51
2022/10/04 01:16:19;;;;;;;21.60;4.70;;;;;;;10.60;100.00;102083.25;4998746;28;20184;-51
2022/10/04 01:18:46;;;;;;;16.92;4.68;;;;;;;10.57;100.00;102077.06;4995308;28;20772;-49
2022/10/04 01:21:17;;;;;;;16.83;5.90;;;;;;;10.66;100.00;102076.91;5001022;28;20352;-48
2022/10/04 01:23:49;;;;;;;19.27;5.38;;;;;;;10.67;100.00;102082.25;4990784;28;20225;-46
2022/10/04 01:26:31;;;;;;;21.15;6.07;;;;;;;10.64;100.00;102074.22;5001638;28;20548;-45
2022/10/04 01:29:24;;;;;;;14.00;5.20;;;;;;;10.70;100.00;102066.09;5005012;28;20239;-48
2022/10/04 01:31:52;;;;;;;24.13;7.00;;;;;;;10.72;100.00;102064.25;5001559;28;20205;-48
2022/10/04 01:34:27;;;;;;;15.13;6.63;;;;;;;10.76;100.00;102050.78;5008283;28;20256;-47
2022/10/04 01:36:56;;;;;;;14.48;6.78;;;;;;;10.78;100.00;102054.31;4999525;28;20181;-48
2022/10/04 01:39:24;;;;;;;11.27;5.28;;;;;;;10.81;100.00;102062.31;5002175;28;20220;-50
2022/10/04 01:41:53;;;;;;;15.32;6.47;;;;;;;10.80;100.00;102063.22;4997829;28;20210;-51
2022/10/04 01:44:22;;;;;;;14.55;6.93;;;;;;;10.82;100.00;102056.03;4999334;28;20228;-46
2022/10/04 01:46:49;;;;;;;17.75;6.72;;;;;;;10.81;100.00;102054.28;5003808;28;20193;-47
2022/10/04 01:49:22;;;;;;;14.05;6.78;;;;;;;10.80;100.00;102049.81;4997580;28;20197;-49
2022/10/04 01:52:13;;;;;;;10.25;6.82;;;;;;;10.78;100.00;102047.19;4999399;28;20224;-46
2022/10/04 01:54:47;;;;;;;16.75;8.40;;;;;;;10.72;100.00;102045.50;4997867;28;20189;-46
2022/10/04 01:57:16;;;;;;;9.05;7.15;;;;;;;10.80;100.00;102044.47;5001577;28;20196;-46
2022/10/04 01:59:50;;;;;;;15.43;8.43;;;;;;;10.74;100.00;102044.59;4998153;28;20672;-46
2022/10/04 02:02:30;;;;;;;15.88;9.13;;;;;;;10.73;100.00;102038.34;4995935;28;20220;-47
2022/10/04 02:04:58;;;;;;;23.38;9.45;;;;;;;10.72;100.00;102048.19;5008321;28;20564;-48
2022/10/04 02:07:28;;;;;;;21.83;9.57;;;;;;;10.76;100.00;102038.28;5003624;28;20217;-47
2022/10/04 02:09:58;;;;;;;24.83;9.73;;;;;;;10.76;100.00;102049.00;5003578;28;20239;-46
2022/10/04 02:12:25;;;;;;;18.92;9.30;;;;;;;10.80;100.00;102033.72;5002062;28;20276;-48
2022/10/04 02:14:52;;;;;;;22.40;9.55;;;;;;;10.81;100.00;102038.19;4997478;28;20236;-48
2022/10/04 02:17:27;;;;;;;24.40;8.80;;;;;;;10.82;100.00;102043.53;5003914;28;20189;-47
2022/10/04 02:19:53;;;;;;;19.25;8.38;;;;;;;10.82;100.00;102029.22;4997236;28;20203;-47
2022/10/04 02:22:19;;;;;;;18.45;8.10;;;;;;;10.86;100.00;102030.94;4998551;28;20241;-46
2022/10/04 02:24:47;;;;;;;19.67;8.25;;;;;;;10.80;100.00;102036.41;4998845;28;20185;-45
2022/10/04 02:27:13;;;;;;;17.15;8.07;;;;;;;10.78;100.00;102028.41;4998874;28;20267;-44
2022/10/04 02:29:39;;;;;;;16.45;8.10;;;;;;;10.82;100.00;102039.94;4996645;28;20188;-45
2022/10/04 02:34:53;;;;;;;18.30;7.30;;;;;;;10.80;100.00;102028.38;5002170;28;20263;-46
2022/10/04 02:37:22;;;;;;;17.23;7.95;;;;;;;10.81;100.00;102025.66;5000623;28;20644;-45
2022/10/04 02:40:11;;;;;;;15.55;8.02;;;;;;;10.80;100.00;102014.97;5002973;28;20221;-50
2022/10/04 02:42:42;;;;;;;18.65;7.43;;;;;;;10.86;100.00;102014.84;4996623;28;20189;-50
2022/10/04 02:45:36;;;;;;;18.27;9.25;;;;;;;10.76;100.00;102010.56;4999277;28;20197;-50
2022/10/04 02:48:26;;;;;;;20.42;8.70;;;;;;;10.77;100.00;102010.56;5001958;28;20863;-44
2022/10/04 02:50:56;;;;;;;19.88;8.50;;;;;;;10.71;100.00;102008.00;4998771;28;20225;-46
2022/10/04 02:53:36;;;;;;;18.17;10.25;;;;;;;10.68;100.00;101995.53;4999186;28;20181;-45
2022/10/04 02:56:02;;;;;;;19.77;9.32;;;;;;;10.72;100.00;102007.09;4995074;28;20269;-46
2022/10/04 02:58:30;;;;;;;17.25;10.50;;;;;;;10.69;100.00;102012.50;5001125;28;20189;-46
2022/10/04 03:00:58;;;;;;;13.68;9.40;;;;;;;10.65;100.00;102025.09;4996595;28;20212;-46
2022/10/04 03:03:44;;;;;;;13.90;9.60;;;;;;;10.67;100.00;102011.63;5000593;28;20189;-45
2022/10/04 03:06:14;;;;;;;18.35;9.98;;;;;;;10.69;100.00;102008.03;4998559;28;20216;-45
2022/10/04 03:08:43;;;;;;;18.13;10.43;;;;;;;10.60;100.00;102007.31;4999017;28;20193;-46
2022/10/04 03:11:11;;;;;;;14.80;10.15;;;;;;;10.67;100.00;102007.19;5000547;28;20244;-46
2022/10/04 03:13:44;;;;;;;20.27;12.00;;;;;;;10.59;100.00;102003.75;5002046;28;20276;-50
2022/10/04 03:16:09;;;;;;;22.55;12.02;;;;;;;10.51;100.00;102003.03;4993811;28;20185;-49
2022/10/04 03:18:36;;;;;;;17.77;11.63;;;;;;;10.52;100.00;102008.38;4998392;28;20201;-51
2022/10/04 03:21:07;;;;;;;25.67;13.10;;;;;;;10.43;100.00;101995.16;4999018;28;20209;-48
2022/10/04 03:23:33;;;;;;;21.95;13.68;;;;;;;10.47;100.00;102004.91;4996292;28;20189;-50
2022/10/04 03:26:06;;;;;;;26.55;14.55;;;;;;;10.49;100.00;101997.72;4993806;28;20201;-51
2022/10/04 03:28:32;;;;;;;26.15;14.85;;;;;;;10.52;100.00;101992.28;4997775;28;20197;-48
2022/10/04 03:30:58;;;;;;;26.27;15.05;;;;;;;10.51;100.00;101986.94;4996095;28;20634;-51
2022/10/04 03:33:27;;;;;;;21.30;14.40;;;;;;;10.57;100.00;101986.84;5015080;28;20184;-48
2022/10/04 03:35:56;;;;;;;23.85;14.07;;;;;;;10.60;100.00;101992.13;4997152;28;20204;-51
2022/10/04 03:38:24;;;;;;;26.10;15.18;;;;;;;10.62;100.00;101998.34;4999579;28;20344;-48
2022/10/04 03:40:57;;;;;;;23.90;15.38;;;;;;;10.57;100.00;101996.69;4995975;28;20240;-48
2022/10/04 03:43:30;;;;;;;34.45;17.38;;;;;;;10.55;100.00;101988.66;4993474;28;20208;-49
2022/10/04 03:45:57;;;;;;;31.63;16.20;;;;;;;10.58;100.00;102001.97;4998456;28;20531;-51
2022/10/04 03:48:43;;;;;;;31.92;16.02;;;;;;;10.67;100.00;101998.25;4995175;28;20211;-46
2022/10/04 03:51:15;;;;;;;40.25;18.20;;;;;;;10.62;100.00;101992.97;4993569;28;20248;-50
2022/10/04 03:53:44;;;;;;;31.33;16.52;;;;;;;10.64;100.00;101987.59;4995660;28;20193;-50
2022/10/04 03:56:19;;;;;;;30.73;16.50;;;;;;;10.69;100.00;101986.59;4994239;28;20272;-50
2022/10/04 03:58:45;;;;;;;38.95;18.65;;;;;;;10.62;100.00;101989.41;4994588;28;20676;-49
2022/10/04 04:01:28;;;;;;;33.40;17.52;;;;;;;10.64;100.00;101990.28;4995902;28;20241;-49
2022/10/04 04:04:11;;;;;;;27.77;17.25;;;;;;;10.66;100.00;101977.72;4990797;28;20193;-50
2022/10/04 04:07:11;;;;;;;40.88;19.48;;;;;;;10.61;100.00;101985.00;4995072;28;20355;-51
2022/10/04 04:09:55;;;;;;;38.22;18.90;;;;;;;10.58;100.00;101983.22;5006572;28;20196;-50
2022/10/04 04:12:32;;;;;;;45.72;20.17;;;;;;;10.57;100.00;101978.78;4993921;28;20224;-50
2022/10/04 04:15:00;;;;;;;32.80;18.77;;;;;;;10.60;100.00;101975.16;4989511;28;20193;-49
2022/10/04 04:17:26;;;;;;;39.08;19.77;;;;;;;10.57;100.00;101975.25;4995820;28;20184;-50
2022/10/04 04:19:58;;;;;;;33.65;19.52;;;;;;;10.62;100.00;101968.84;4993327;28;20232;-50
2022/10/04 04:22:30;;;;;;;40.05;20.05;;;;;;;10.61;100.00;101964.41;4995072;28;20846;-51
2022/10/04 04:25:07;;;;;;;37.28;19.67;;;;;;;10.60;100.00;101943.88;4989893;28;20280;-49
2022/10/04 04:27:36;;;;;;;33.05;17.95;;;;;;;10.60;100.00;101959.09;5002990;28;20208;-49
2022/10/04 04:30:05;;;;;;;35.83;18.85;;;;;;;10.57;100.00;101960.03;4994371;28;20607;-51
2022/10/04 04:32:39;;;;;;;27.27;17.35;;;;;;;10.60;100.00;101959.97;4997500;28;20196;-48
2022/10/04 04:35:19;;;;;;;35.42;18.92;;;;;;;10.55;100.00;101977.94;4996079;28;20684;-50
2022/10/04 04:38:02;;;;;;;34.63;18.38;;;;;;;10.57;100.00;101978.78;4993970;28;20195;-49
2022/10/04 04:40:27;;;;;;;25.13;15.65;;;;;;;10.60;100.00;101975.16;5007681;28;20274;-49
2022/10/04 04:42:58;;;;;;;27.58;16.25;;;;;;;10.54;100.00;101977.97;4993254;28;20189;-50
2022/10/04 04:45:28;;;;;;;32.03;16.80;;;;;;;10.51;100.00;101965.50;4997077;28;20252;-50
2022/10/04 04:47:58;;;;;;;31.05;15.68;;;;;;;10.52;100.00;101969.97;4959487;28;1115805;-48
2022/10/04 04:50:35;;;;;;;27.25;15.00;;;;;;;10.49;100.00;101967.34;4991576;28;20575;-50
2022/10/04 04:53:21;;;;;;;29.48;15.57;;;;;;;10.47;100.00;101974.53;4995619;28;20271;-49
2022/10/04 04:56:05;;;;;;;27.70;14.00;;;;;;;10.42;100.00;101968.38;4994099;28;20192;-48
2022/10/04 04:58:37;;;;;;;27.70;14.25;;;;;;;10.47;100.00;101963.78;4998465;28;20196;-50
2022/10/04 05:01:27;;;;;;;26.58;13.13;;;;;;;10.46;100.00;101970.97;4998726;28;20209;-51
2022/10/04 05:04:08;;;;;;;23.33;12.93;;;;;;;10.50;100.00;101969.13;4995911;28;20185;-49
2022/10/04 05:06:35;;;;;;;22.75;12.07;;;;;;;10.49;100.00;101968.25;4997414;28;20343;-50
2022/10/04 05:09:03;;;;;;;19.50;11.85;;;;;;;10.46;100.00;101962.03;4997698;28;20197;-50
2022/10/04 05:11:33;;;;;;;24.98;12.45;;;;;;;10.45;100.00;101970.97;5003738;28;20205;-50
2022/10/04 05:14:09;;;;;;;21.77;12.13;;;;;;;10.45;100.00;101963.84;5001275;28;20278;-50
2022/10/04 05:16:54;;;;;;;19.30;11.45;;;;;;;10.48;100.00;101963.78;4996857;28;20260;-50
2022/10/04 05:19:30;;;;;;;15.82;10.40;;;;;;;10.50;100.00;101958.41;5002915;28;20184;-50
2022/10/04 05:21:58;;;;;;;20.25;11.30;;;;;;;10.42;100.00;101955.84;4996717;28;20295;-48
2022/10/04 05:24:33;;;;;;;21.58;11.63;;;;;;;10.41;100.00;101959.47;4995666;28;20861;-49
2022/10/04 05:27:14;;;;;;;18.85;10.70;;;;;;;10.36;100.00;101955.09;5000785;28;20219;-48
2022/10/04 05:29:53;;;;;;;20.50;10.77;;;;;;;10.35;100.00;101948.84;4991575;28;20332;-51
2022/10/04 05:32:40;;;;;;;22.58;10.60;;;;;;;10.38;100.00;101942.56;4998211;28;20717;-47
2022/10/04 05:35:17;;;;;;;23.33;10.70;;;;;;;10.36;100.00;101937.22;4998768;28;20189;-47
2022/10/04 05:37:52;;;;;;;20.98;9.55;;;;;;;10.35;100.00;101935.47;5002590;28;20191;-46
2022/10/04 05:40:32;;;;;;;17.40;9.38;;;;;;;10.33;100.00;101937.28;5005979;28;20219;-49
2022/10/04 05:42:58;;;;;;;21.02;10.02;;;;;;;10.38;100.00;101931.84;5002139;28;20589;-49
2022/10/04 05:45:29;;;;;;;16.38;9.82;;;;;;;10.42;100.00;101938.91;4992881;28;20189;-49
2022/10/04 05:47:57;;;;;;;16.33;9.15;;;;;;;10.43;100.00;101940.66;4994926;28;20264;-49
2022/10/04 05:50:41;;;;;;;16.67;8.60;;;;;;;10.46;100.00;101935.25;4997711;28;20217;-47
2022/10/04 05:53:31;;;;;;;17.58;8.63;;;;;;;10.46;100.00;101932.56;4999909;28;20181;-49
2022/10/04 05:56:09;;;;;;;17.83;9.43;;;;;;;10.47;100.00;101932.56;4998992;28;20197;-51
2022/10/04 05:59:08;;;;;;;14.70;8.75;;;;;;;10.46;100.00;101924.53;5002045;28;20271;-48
2022/10/04 06:01:59;;;;;;;14.45;9.35;;;;;;;10.43;100.00;101929.94;5005536;28;20239;-49
2022/10/04 06:04:48;;;;;;;18.98;9.93;;;;;;;10.46;100.00;101919.19;4994091;28;20613;-51
2022/10/04 06:07:17;;;;;;;15.23;10.10;;;;;;;10.45;100.00;101922.75;4996951;28;20721;-51
2022/10/04 06:10:10;;;;;;;15.07;9.68;;;;;;;10.38;100.00;101918.44;4999049;28;20666;-49
2022/10/04 06:12:58;;;;;;;16.15;8.35;;;;;;;10.44;100.00;101918.31;5000112;28;20185;-47
2022/10/04 06:15:40;;;;;;;12.75;8.32;;;;;;;10.57;100.00;101924.31;5000665;28;20220;-50
2022/10/04 06:18:36;;;;;;;13.18;8.40;;;;;;;10.46;100.00;101916.50;4994971;28;20200;-50
2022/10/04 06:21:23;;;;;;;20.70;9.85;;;;;;;10.44;100.00;101919.19;5000131;28;20313;-51
2022/10/04 06:23:52;;;;;;;13.52;8.75;;;;;;;10.51;100.00;101923.50;4999726;28;20191;-49
2022/10/04 06:26:23;;;;;;;21.83;9.70;;;;;;;10.49;100.00;101928.06;5000878;28;20205;-51
2022/10/04 06:28:57;;;;;;;18.88;9.73;;;;;;;10.58;100.00;101926.06;5000916;28;20268;-49
2022/10/04 06:31:36;;;;;;;16.35;8.55;;;;;;;10.59;100.00;101919.81;4996879;28;20592;-50
2022/10/04 06:34:14;;;;;;;17.65;9.82;;;;;;;10.61;100.00;101918.88;4994861;28;20677;-49
2022/10/04 06:36:54;;;;;;;15.68;9.73;;;;;;;10.63;100.00;101902.75;4996626;28;20189;-49
2022/10/04 06:39:22;;;;;;;15.98;8.73;;;;;;;10.77;100.00;101907.81;4999160;28;20220;-49
2022/10/04 06:42:22;;;;;;;16.02;9.20;;;;;;;10.70;100.00;101909.75;4998627;28;20607;-49
2022/10/04 06:45:03;;;;;;;12.50;8.38;;;;;;;10.73;100.00;101928.44;4994301;28;20240;-48
2022/10/04 06:48:17;;;;;;;12.43;7.78;;;;;;;10.75;100.00;101936.44;5008276;28;20200;-49
2022/10/04 06:50:53;;;;;;;15.27;9.52;;;;;;;10.74;100.00;101932.03;4957393;28;20241;-51
2022/10/04 06:53:34;;;;;;;14.00;8.02;;;;;;;10.77;100.00;101919.41;4999756;28;20199;-49
2022/10/04 06:56:16;;;;;;;14.65;8.50;;;;;;;10.77;100.00;101935.50;4998052;28;20209;-50
2022/10/04 06:59:06;;;;;;;13.80;7.57;;;;;;;10.84;100.00;101938.94;4997068;28;20259;-50
2022/10/04 07:01:35;;;;;;;17.02;8.68;;;;;;;10.80;100.00;101915.78;4998261;28;20208;-49
2022/10/04 07:04:04;;;;;;;16.55;8.90;;;;;;;10.85;100.00;101925.50;5001284;28;20185;-48
2022/10/04 07:06:38;;;;;;;13.98;8.60;;;;;;;10.81;100.00;101926.47;5001252;28;20699;-49
2022/10/04 07:09:13;;;;;;;11.93;8.05;;;;;;;10.91;100.00;101924.47;4999379;28;20189;-49
2022/10/04 07:12:07;;;;;;;17.58;7.97;;;;;;;10.90;100.00;101928.94;4997128;28;20226;-48
2022/10/04 07:14:42;;;;;;;15.50;7.88;;;;;;;10.93;100.00;101928.00;4991076;28;20292;-47
2022/10/04 07:17:12;;;;;;;18.67;8.80;;;;;;;10.95;100.00;101927.97;4996516;28;20263;-50
2022/10/04 07:19:50;;;;;;;19.10;8.63;;;;;;;11.01;100.00;101928.72;4998049;28;20181;-51
2022/10/04 07:22:25;;;;;;;20.10;7.70;;;;;;;11.09;100.00;101923.19;4994693;28;20209;-49
2022/10/04 07:24:53;;;;;;;13.57;7.35;;;;;;;11.18;100.00;101924.78;4998656;28;20193;-50
2022/10/04 07:27:31;;;;;;;19.55;8.25;;;;;;;11.18;100.00;101920.28;5004931;28;20208;-48
2022/10/04 07:30:05;;;;;;;12.70;7.78;;;;;;;11.23;100.00;101926.41;4990860;28;20196;-49
2022/10/04 07:32:35;;;;;;;15.18;8.13;;;;;;;11.23;100.00;101929.09;5002449;28;20275;-50
2022/10/04 07:35:11;;;;;;;10.20;6.88;;;;;;;11.32;100.00;101934.25;4999951;28;20256;-51
2022/10/04 07:37:59;;;;;;;16.23;7.57;;;;;;;11.31;100.00;101937.88;4995527;28;20647;-49
2022/10/04 07:40:30;;;;;;;11.77;7.28;;;;;;;11.36;100.00;101928.81;5005637;28;20271;-50
2022/10/04 07:43:03;;;;;;;12.80;7.40;;;;;;;11.38;100.00;101927.00;4993923;28;20282;-50
2022/10/04 07:45:36;;;;;;;21.83;8.35;;;;;;;11.33;100.00;101919.06;4996406;28;20181;-49
2022/10/04 07:48:22;;;;;;;15.63;7.75;;;;;;;11.41;100.00;101927.78;4997956;28;21705;-49
2022/10/04 07:51:09;;;;;;;25.52;17.77;;;;;;;11.42;100.00;101932.25;4999234;28;20208;-50
2022/10/04 07:53:46;;;;;;;15.73;8.15;;;;;;;11.49;100.00;101931.16;4998355;28;20251;-48
2022/10/04 07:56:21;;;;;;;13.20;7.70;;;;;;;11.47;100.00;101919.59;4998157;28;20185;-49
2022/10/04 07:58:55;;;;;;;856.83;76.72;;;;;;;11.50;100.00;101927.56;4998158;28;20205;-49
2022/10/04 08:01:31;;;;;;;19.50;7.95;;;;;;;11.54;100.00;101931.97;4990270;28;20216;-50
2022/10/04 08:04:27;;;;;;;22.50;8.25;;;;;;;11.61;100.00;101926.41;4997968;28;20212;-48
2022/10/04 08:07:01;;;;;;;14.50;7.40;;;;;;;11.68;100.00;101925.34;4987231;28;20233;-49
2022/10/04 08:09:30;;;;;;;11.73;6.32;;;;;;;11.67;100.00;101923.56;4995624;28;20181;-49
2022/10/04 08:12:12;;;;;;;17.77;7.32;;;;;;;11.67;100.00;101913.72;4998086;28;20270;-49
2022/10/04 08:14:43;;;;;;;10.80;6.20;;;;;;;11.64;100.00;101911.13;4995717;28;20280;-50
2022/10/04 08:17:10;;;;;;;17.40;6.07;;;;;;;11.65;100.00;101914.69;4995832;28;20636;-50
2022/10/04 08:19:56;;;;;;;9.50;5.38;;;;;;;11.77;100.00;101908.13;5000107;28;20192;-49
2022/10/04 08:22:54;;;;;;;17.85;7.22;;;;;;;11.75;100.00;101911.72;4996276;28;20216;-49
2022/10/04 08:25:51;;;;;;;12.88;6.32;;;;;;;11.82;100.00;101907.06;4995024;28;20185;-48
2022/10/04 08:31:45;;;;;;;14.43;5.57;;;;;;;11.87;100.00;101907.84;4994713;28;20209;-47
2022/10/04 08:34:30;;;;;;;13.32;5.60;;;;;;;11.84;100.00;101902.53;4997292;28;20532;-50
2022/10/04 08:37:33;;;;;;;12.27;5.35;;;;;;;11.90;100.00;101905.13;4999986;28;20216;-50
2022/10/04 08:40:25;;;;;;;16.38;5.55;;;;;;;11.94;100.00;101900.56;5001282;28;20252;-49
2022/10/04 08:43:12;;;;;;;10.77;5.60;;;;;;;11.94;100.00;101904.13;4998884;28;20181;-48
2022/10/04 08:46:08;;;;;;;16.15;6.10;;;;;;;11.95;100.00;101904.97;4998075;28;20273;-50
2022/10/04 08:48:41;;;;;;;13.65;5.80;;;;;;;12.04;100.00;101902.03;5006209;28;20204;-49
2022/10/04 08:51:32;;;;;;;13.40;5.10;;;;;;;12.09;100.00;101904.59;4998764;28;20209;-50
2022/10/04 08:54:09;;;;;;;15.80;5.47;;;;;;;12.11;100.00;101909.03;4999966;28;20209;-52
2022/10/04 08:57:14;;;;;;;11.98;5.38;;;;;;;12.24;100.00;101909.56;4995092;28;20181;-49
2022/10/04 08:59:48;;;;;;;17.02;5.97;;;;;;;12.44;100.00;101894.66;4999332;28;20184;-49
2022/10/04 09:02:45;;;;;;;18.92;5.57;;;;;;;12.41;100.00;101905.53;4997469;28;20223;-47
2022/10/04 09:05:28;;;;;;;15.85;5.40;;;;;;;12.44;100.00;101900.94;4996279;28;20204;-49
2022/10/04 09:07:56;;;;;;;13.48;5.25;;;;;;;12.45;100.00;101902.69;4999652;28;20718;-48
2022/10/04 09:10:28;;;;;;;15.75;5.30;;;;;;;12.50;100.00;101889.13;4995493;28;20213;-46
2022/10/04 09:13:12;;;;;;;7.15;4.63;;;;;;;12.68;100.00;101890.38;4998016;28;20593;-47
2022/10/04 09:16:01;;;;;;;12.43;5.85;;;;;;;12.73;100.00;101888.44;4998286;28;20220;-49
2022/10/04 09:18:50;;;;;;;15.90;5.25;;;;;;;12.72;100.00;101895.63;5008946;28;20255;-46
2022/10/04 09:21:27;;;;;;;15.88;5.65;;;;;;;12.62;100.00;101887.91;4991418;28;20202;-49
2022/10/04 09:24:02;;;;;;;16.80;5.28;;;;;;;12.62;100.00;101880.72;4996248;28;20267;-45
2022/10/04 09:26:58;;;;;;;17.90;5.63;;;;;;;12.64;100.00;101889.59;5006889;28;20200;-51
2022/10/04 09:29:48;;;;;;;15.43;4.97;;;;;;;12.68;100.00;101877.84;4999081;28;20186;-52
2022/10/04 09:32:47;;;;;;;9.13;4.57;;;;;;;12.76;100.00;101878.47;4992690;28;20208;-49
2022/10/04 09:35:30;;;;;;;12.77;4.57;;;;;;;12.94;100.00;101878.81;4998393;28;20188;-47
2022/10/04 09:38:14;;;;;;;9.70;4.82;;;;;;;12.92;100.00;101878.00;4992800;28;20181;-45
2022/10/04 09:40:51;;;;;;;16.60;4.75;;;;;;;13.04;100.00;101880.31;5006513;28;20214;-45
2022/10/04 09:44:01;;;;;;;13.13;5.10;;;;;;;13.14;100.00;101879.09;4994091;28;20217;-46
2022/10/04 09:46:45;;;;;;;13.57;5.05;;;;;;;13.22;100.00;101873.44;4976677;28;20235;-46
2022/10/04 09:49:52;;;;;;;17.08;4.90;;;;;;;13.30;100.00;101875.94;5013650;28;20192;-47
2022/10/04 09:52:30;;;;;;;14.52;5.22;;;;;;;13.29;100.00;101869.66;5005434;28;20287;-46
2022/10/04 09:55:27;;;;;;;14.25;5.00;;;;;;;13.38;100.00;101871.16;5010842;28;20239;-46
2022/10/04 09:58:21;;;;;;;15.55;5.35;;;;;;;13.53;100.00;101865.25;5006185;28;20182;-44
2022/10/04 10:01:15;;;;;;;10.93;5.15;;;;;;;13.41;100.00;101873.75;5009700;28;20292;-46
2022/10/04 10:04:39;;;;;;;21.00;5.75;;;;;;;13.48;100.00;101859.16;5001602;28;20191;-44
2022/10/04 10:07:33;;;;;;;17.40;5.25;;;;;;;13.63;100.00;101862.28;4950873;28;20275;-46
2022/10/04 10:13:39;;;;;;;13.13;4.80;;;;;;;14.13;100.00;101856.91;4993785;28;20216;-43
2022/10/04 10:16:38;;;;;;;15.95;5.03;;;;;;;14.30;99.62;101846.38;4997088;28;20271;-45
2022/10/04 10:19:40;;;;;;;11.73;4.38;;;;;;;14.69;98.87;101844.91;5011276;28;20197;-46
2022/10/04 10:22:43;;;;;;;16.73;4.57;;;;;;;14.77;97.02;101843.69;5013052;28;20193;-48
2022/10/04 10:25:27;;;;;;;17.10;4.60;;;;;;;14.97;97.03;101839.31;4994740;28;20577;-44
2022/10/04 10:27:52;;;;;;;13.40;4.40;;;;;;;15.04;95.22;101835.41;5007776;28;20216;-42
2022/10/04 10:30:39;;;;;;;12.05;3.63;;;;;;;15.32;94.52;101823.47;4994017;28;20213;-50
2022/10/04 10:33:31;;;;;;;15.85;4.25;;;;;;;15.26;93.35;101827.31;5009305;28;20180;-45
2022/10/04 10:36:08;;;;;;;11.93;4.15;;;;;;;15.49;92.62;101826.34;4993227;28;20454;-46
2022/10/04 10:39:15;;;;;;;13.77;4.43;;;;;;;15.45;91.86;101825.59;4995304;28;20181;-45
2022/10/04 10:41:59;;;;;;;17.15;4.63;;;;;;;15.47;91.10;101839.03;4985201;28;20217;-47
2022/10/04 10:44:49;;;;;;;17.40;4.55;;;;;;;15.69;91.22;101840.81;5003558;28;20280;-44
2022/10/04 10:47:38;;;;;;;11.55;4.75;;;;;;;15.71;90.48;101828.13;4992770;28;20197;-45
2022/10/04 10:50:31;;;;;;;11.10;4.03;;;;;;;16.05;90.39;101841.06;5000193;28;20557;-46
2022/10/04 10:53:28;;;;;;;15.68;4.78;;;;;;;16.20;90.16;101823.22;4994050;28;20248;-48
2022/10/04 10:56:15;;;;;;;12.15;4.60;;;;;;;16.19;89.00;101837.72;4992159;28;20655;-47
2022/10/04 10:59:02;;;;;;;14.80;4.85;;;;;;;16.05;88.33;101830.25;5005996;28;20531;-46
2022/10/04 11:02:03;;;;;;;15.98;4.38;;;;;;;16.20;88.16;101818.72;5005067;28;20300;-49
2022/10/04 11:04:31;;;;;;;13.35;4.70;;;;;;;16.01;87.58;101818.69;5001059;28;20233;-46
2022/10/04 11:07:06;;;;;;;14.63;4.68;;;;;;;16.18;87.16;101807.09;5006382;28;20200;-43
2022/10/04 11:09:46;;;;;;;18.08;4.90;;;;;;;16.33;86.88;101799.22;5000695;28;20581;-50
2022/10/04 11:12:23;;;;;;;15.88;5.28;;;;;;;16.28;86.56;101804.84;5002062;28;20223;-48
2022/10/04 11:15:00;;;;;;;21.23;5.32;;;;;;;16.08;86.07;101799.47;5008431;28;20183;-44
2022/10/04 11:17:48;;;;;;;13.23;5.40;;;;;;;16.35;85.79;101800.00;5010171;28;20329;-48
2022/10/04 11:20:39;;;;;;;17.33;5.10;;;;;;;16.00;86.46;101799.81;4994550;28;20185;-45
2022/10/04 11:23:25;;;;;;;17.33;5.13;;;;;;;15.82;87.06;101804.22;4996066;28;20235;-47
2022/10/04 11:25:57;;;;;;;20.60;5.60;;;;;;;15.50;87.83;101801.06;5011590;28;20169;-45
2022/10/04 11:28:30;;;;;;;17.40;5.45;;;;;;;15.47;88.78;101800.34;5007615;28;20259;-47
2022/10/04 11:31:15;;;;;;;16.45;5.47;;;;;;;15.79;89.01;101805.25;5011284;28;20231;-44
2022/10/04 11:34:10;;;;;;;15.45;5.40;;;;;;;15.95;87.85;101802.72;4995200;28;20567;-46
2022/10/04 11:37:00;;;;;;;14.38;5.53;;;;;;;15.62;86.60;101803.25;4991584;28;20192;-45
2022/10/04 11:39:54;;;;;;;13.70;5.20;;;;;;;15.80;84.77;101798.88;4997861;28;20275;-45
2022/10/04 11:42:35;;;;;;;13.75;5.22;;;;;;;15.88;84.11;101790.44;4996073;28;20414;-45
2022/10/04 11:45:40;;;;;;;14.43;5.00;;;;;;;15.90;83.38;101801.19;4994135;28;20675;-46
2022/10/04 11:48:47;;;;;;;13.60;4.10;;;;;;;16.05;82.27;101781.59;4986575;28;20398;-48
2022/10/04 11:51:39;;;;;;;12.60;4.32;;;;;;;16.16;82.19;101778.34;4989994;28;20232;-46
2022/10/04 11:54:28;;;;;;;10.85;4.10;;;;;;;16.37;81.34;101768.38;4992974;28;20196;-47
2022/10/04 11:57:15;;;;;;;10.02;3.10;;;;;;;16.73;81.11;101765.72;4993095;28;20243;-46
2022/10/04 11:59:52;;;;;;;13.23;3.10;;;;;;;17.11;80.97;101768.38;4989972;28;20554;-47
2022/10/04 12:02:35;;;;;;;10.18;3.25;;;;;;;17.20;79.90;101759.78;4998338;28;20767;-48
2022/10/04 12:05:19;;;;;;;15.15;4.30;;;;;;;17.04;78.80;101742.56;4997839;28;20212;-45
2022/10/04 12:07:51;;;;;;;12.05;3.58;;;;;;;16.58;81.08;101747.53;4997069;28;20219;-47
2022/10/04 12:10:22;;;;;;;11.32;3.53;;;;;;;16.78;80.64;101733.00;4993576;28;20237;-50
2022/10/04 12:13:09;;;;;;;11.45;3.58;;;;;;;17.01;80.66;101734.59;4993220;28;20187;-48